LSN weather

Los Banos Municipal Airport
Los Banos, California, United States

Public forecast

Using degrees Fahrenheit for public forecast. Weather courtesy of forecast.io.

Closest aviation weather report (METAR) to Los Banos Municipal Airport

Closest report is Merced Regional Macready Field, 21.6 nm (40.0 km) NE. Retrieved 2020/02/19 05:53 UTC (51 minutes ago):

KMCE 190553Z AUTO 00000KT 10SM CLR 08/00 A3002 RMK AO2 SLP166 T00830000 10189 20078 53012

Closest aviation forecast (TAF) to Los Banos Municipal Airport

Closest forecast is Merced Regional Macready Field, 21.6 nm (40.0 km) NE. Retrieved 2020/02/19 06:22 UTC (22 minutes ago):

TAF KMCE 190520Z 1906/2006 VRB04KT P6SM SCT200